Time;durP1;ratioP1;P1;durP2;ratioP2;P2;SDS_P1;SDS_P2;PMS_P1;PMS_P2;Temp;Humidity;BMP_temperature;BMP_pressure;BME280_temperature;BME280_humidity;BME280_pressure;Samples;Min_cycle;Max_cycle;Signal;HPM_P1;HPM_P2
2020/12/28 00:00:30;;;;;;;7.33;6.80;;;4.20;99.90;;;;;;4987249;28;20775;-25
2020/12/28 00:02:57;;;;;;;7.00;6.50;;;4.20;99.90;;;;;;4989223;28;20443;-25
2020/12/28 00:05:25;;;;;;;6.73;6.20;;;4.20;99.90;;;;;;4988717;28;20510;-26
2020/12/28 00:07:52;;;;;;;6.80;6.20;;;4.20;99.90;;;;;;4988356;28;20444;-25
2020/12/28 00:10:20;;;;;;;6.70;6.20;;;4.20;99.90;;;;;;4987986;28;20759;-25
2020/12/28 00:12:47;;;;;;;6.20;5.70;;;4.20;99.90;;;;;;4989232;28;20492;-25
2020/12/28 00:15:19;;;;;;;6.43;5.90;;;4.20;99.90;;;;;;4989276;28;20491;-25
2020/12/28 00:17:47;;;;;;;6.27;5.87;;;4.20;99.90;;;;;;4991778;28;20755;-25
2020/12/28 00:20:14;;;;;;;7.00;6.50;;;4.10;99.90;;;;;;4993354;28;20440;-25
2020/12/28 00:22:41;;;;;;;7.03;6.33;;;4.10;99.90;;;;;;4992728;28;20854;-25
2020/12/28 00:25:08;;;;;;;6.17;5.67;;;4.20;99.90;;;;;;4992585;28;20483;-25
2020/12/28 00:27:34;;;;;;;7.17;6.70;;;4.30;99.90;;;;;;4993207;28;20524;-26
2020/12/28 00:30:02;;;;;;;6.47;5.87;;;4.30;99.90;;;;;;4991809;28;20448;-26
2020/12/28 00:32:29;;;;;;;5.80;5.30;;;4.30;99.90;;;;;;4989653;28;20491;-26
2020/12/28 00:34:55;;;;;;;6.13;5.73;;;4.30;99.90;;;;;;4989332;28;20733;-25
2020/12/28 00:37:22;;;;;;;6.30;5.80;;;4.30;99.90;;;;;;4989899;28;20437;-26
2020/12/28 00:39:49;;;;;;;7.83;6.27;;;4.30;99.90;;;;;;4989522;28;20718;-25
2020/12/28 00:42:19;;;;;;;5.83;5.43;;;4.40;99.90;;;;;;4989721;28;20455;-25
2020/12/28 00:44:45;;;;;;;7.73;5.83;;;4.40;99.90;;;;;;4990513;28;20471;-25
2020/12/28 00:47:12;;;;;;;7.83;5.20;;;4.40;99.90;;;;;;4991718;28;20796;-26
2020/12/28 00:49:39;;;;;;;5.10;4.70;;;4.40;99.90;;;;;;4990908;28;20460;-25
2020/12/28 00:52:05;;;;;;;6.87;6.30;;;4.50;99.90;;;;;;4990195;28;20737;-26
2020/12/28 00:54:33;;;;;;;7.33;6.73;;;4.50;99.90;;;;;;4992014;28;20908;-25
2020/12/28 00:57:01;;;;;;;5.17;4.77;;;4.60;99.90;;;;;;4991013;28;20718;-25
2020/12/28 00:59:29;;;;;;;3.93;3.73;;;4.60;99.90;;;;;;4991042;28;20502;-26
2020/12/28 01:01:56;;;;;;;4.10;3.73;;;4.70;99.90;;;;;;4991880;28;20502;-25
2020/12/28 01:04:23;;;;;;;3.07;2.87;;;4.90;99.90;;;;;;4990233;28;20444;-26
2020/12/28 01:06:56;;;;;;;3.30;3.10;;;5.10;99.90;;;;;;4989761;28;20456;-25
2020/12/28 01:09:46;;;;;;;4.40;3.60;;;5.40;99.90;;;;;;4989146;28;20602;-25
2020/12/28 01:12:13;;;;;;;2.70;2.60;;;5.70;99.90;;;;;;4991089;28;20448;-25
2020/12/28 01:14:40;;;;;;;2.60;2.50;;;5.90;99.90;;;;;;4991910;28;20440;-25
2020/12/28 01:17:08;;;;;;;3.30;3.10;;;5.90;99.90;;;;;;4990009;28;20452;-26
2020/12/28 01:19:47;;;;;;;2.80;2.60;;;6.10;99.90;;;;;;4991109;28;20433;-25
2020/12/28 01:22:14;;;;;;;2.30;2.20;;;6.20;99.90;;;;;;4991266;28;20780;-26
2020/12/28 01:24:41;;;;;;;2.23;2.13;;;6.30;99.90;;;;;;4990257;28;20490;-25
2020/12/28 01:27:07;;;;;;;2.20;2.20;;;6.30;99.90;;;;;;4991667;28;20472;-25
2020/12/28 01:29:35;;;;;;;2.43;2.33;;;6.40;99.90;;;;;;4990878;28;20736;-26
2020/12/28 01:32:02;;;;;;;1.87;1.80;;;6.30;99.90;;;;;;4989341;28;20509;-25
2020/12/28 01:34:47;;;;;;;2.30;2.20;;;6.40;99.90;;;;;;4989113;28;20599;-25
2020/12/28 01:37:14;;;;;;;1.90;1.80;;;6.40;99.90;;;;;;4990832;28;20471;-26
2020/12/28 01:39:50;;;;;;;1.90;1.90;;;6.40;99.90;;;;;;4990517;28;20436;-25
2020/12/28 01:42:18;;;;;;;1.90;1.90;;;6.40;99.90;;;;;;4990458;28;20448;-25
2020/12/28 01:44:50;;;;;;;1.90;1.90;;;6.50;99.90;;;;;;4990763;28;20441;-25
2020/12/28 01:47:23;;;;;;;1.83;1.83;;;6.70;99.90;;;;;;4988838;28;20468;-25
2020/12/28 01:49:50;;;;;;;2.23;2.10;;;6.70;99.90;;;;;;4991030;28;20459;-25
2020/12/28 01:52:17;;;;;;;2.10;2.00;;;6.80;99.90;;;;;;4989440;28;20765;-25
2020/12/28 01:54:44;;;;;;;2.30;2.20;;;6.80;99.90;;;;;;4991301;28;20439;-25
2020/12/28 01:57:16;;;;;;;1.90;1.90;;;6.80;99.90;;;;;;4990244;28;20437;-25
2020/12/28 01:59:52;;;;;;;2.00;2.00;;;6.90;99.90;;;;;;4989933;28;20468;-25
2020/12/28 02:02:32;;;;;;;2.60;2.33;;;6.90;99.90;;;;;;4990975;28;20920;-26
2020/12/28 02:04:59;;;;;;;2.60;2.60;;;6.90;99.90;;;;;;4990313;28;20916;-25
2020/12/28 02:07:30;;;;;;;3.03;2.83;;;6.90;99.90;;;;;;4991313;28;20463;-25
2020/12/28 02:09:57;;;;;;;2.87;2.67;;;6.90;99.90;;;;;;4989848;28;20464;-25
2020/12/28 02:12:24;;;;;;;2.80;2.70;;;6.90;99.90;;;;;;4989187;28;20444;-25
2020/12/28 02:14:52;;;;;;;2.60;2.50;;;6.90;99.90;;;;;;4989770;28;20779;-25
2020/12/28 02:17:39;;;;;;;2.80;2.70;;;6.90;99.90;;;;;;4979107;28;20867;-25
2020/12/28 02:20:14;;;;;;;3.17;3.07;;;6.90;99.90;;;;;;4989883;28;20428;-25
2020/12/28 02:22:44;;;;;;;2.37;2.30;;;6.90;99.90;;;;;;4987139;28;20467;-25
2020/12/28 02:25:11;;;;;;;2.80;2.70;;;6.90;99.90;;;;;;4989196;28;20480;-26
2020/12/28 02:27:39;;;;;;;2.90;2.80;;;6.90;99.90;;;;;;4989641;28;20530;-25
2020/12/28 02:30:07;;;;;;;3.37;3.20;;;6.90;99.90;;;;;;4972902;28;20468;-25
2020/12/28 02:32:46;;;;;;;3.20;3.00;;;6.90;99.90;;;;;;4986251;28;20893;-26
2020/12/28 02:35:23;;;;;;;2.83;2.63;;;6.80;99.90;;;;;;4982219;28;20439;-25
2020/12/28 02:37:55;;;;;;;3.00;2.80;;;6.80;99.90;;;;;;4987111;28;20543;-25
2020/12/28 02:40:23;;;;;;;2.80;2.70;;;6.70;99.90;;;;;;4987181;28;20865;-25
2020/12/28 02:42:49;;;;;;;3.00;2.90;;;6.70;99.90;;;;;;4990105;28;20785;-25
2020/12/28 02:45:34;;;;;;;2.83;2.60;;;6.70;99.90;;;;;;4991347;28;20491;-25
2020/12/28 02:48:20;;;;;;;3.53;3.23;;;6.60;99.90;;;;;;4991460;28;20456;-25
2020/12/28 02:51:05;;;;;;;2.40;2.33;;;6.60;99.90;;;;;;4990461;28;20938;-25
2020/12/28 02:53:51;;;;;;;3.50;3.30;;;6.50;99.90;;;;;;4988464;28;20441;-25
2020/12/28 02:56:36;;;;;;;2.90;2.70;;;6.50;99.90;;;;;;4985004;28;20535;-25
2020/12/28 02:59:23;;;;;;;2.90;2.80;;;6.40;99.90;;;;;;4967317;28;20725;-25
2020/12/28 03:02:08;;;;;;;3.57;3.30;;;6.30;99.90;;;;;;4990503;28;20460;-25
2020/12/28 03:04:53;;;;;;;3.30;3.20;;;6.10;99.90;;;;;;4992131;28;20444;-25
2020/12/28 03:07:38;;;;;;;4.37;3.30;;;6.00;99.90;;;;;;4990036;28;20512;-25
2020/12/28 03:10:25;;;;;;;3.40;3.30;;;6.00;99.90;;;;;;4993016;28;20476;-26
2020/12/28 03:13:10;;;;;;;3.57;3.27;;;6.00;99.90;;;;;;4991796;28;20452;-26
2020/12/28 03:15:56;;;;;;;2.73;2.63;;;6.00;99.90;;;;;;4991993;28;20582;-26
2020/12/28 03:18:41;;;;;;;3.07;2.97;;;6.10;99.90;;;;;;4990808;28;20775;-26
2020/12/28 03:21:27;;;;;;;3.30;3.20;;;6.00;99.90;;;;;;4989203;28;20595;-25
2020/12/28 03:24:12;;;;;;;3.80;3.50;;;6.00;99.90;;;;;;4990700;28;20511;-26
2020/12/28 03:27:02;;;;;;;4.17;3.77;;;6.00;99.90;;;;;;4991135;28;20468;-26
2020/12/28 03:29:47;;;;;;;4.23;3.43;;;6.00;99.90;;;;;;4989744;28;20507;-26
2020/12/28 03:32:33;;;;;;;3.80;3.60;;;6.00;99.90;;;;;;4990092;28;20448;-26
2020/12/28 03:35:26;;;;;;;4.17;3.70;;;6.00;99.90;;;;;;4966779;28;20793;-25
2020/12/28 03:38:11;;;;;;;3.73;3.47;;;6.00;99.90;;;;;;4991389;28;20928;-25
2020/12/28 03:41:01;;;;;;;4.20;3.90;;;6.00;99.90;;;;;;4970984;28;20455;-25
2020/12/28 03:43:47;;;;;;;4.57;4.23;;;6.00;99.90;;;;;;4988112;28;20448;-25
2020/12/28 03:46:32;;;;;;;4.13;3.83;;;5.90;99.90;;;;;;4990161;28;20574;-25
2020/12/28 03:49:18;;;;;;;4.23;3.93;;;5.90;99.90;;;;;;4993286;28;20718;-25
2020/12/28 03:52:03;;;;;;;4.20;3.87;;;5.90;99.90;;;;;;4994703;28;20471;-26
2020/12/28 03:54:49;;;;;;;3.50;3.30;;;5.80;99.90;;;;;;4993388;28;20786;-25
2020/12/28 03:57:34;;;;;;;3.50;3.30;;;5.60;99.90;;;;;;4993146;28;20505;-25
2020/12/28 04:00:20;;;;;;;3.30;3.10;;;5.30;99.90;;;;;;4993488;28;20451;-26
2020/12/28 04:03:06;;;;;;;3.43;3.23;;;5.40;99.90;;;;;;4988775;28;20544;-25
2020/12/28 04:05:51;;;;;;;3.50;3.40;;;5.50;99.90;;;;;;4988419;28;20788;-26
2020/12/28 04:08:36;;;;;;;4.80;4.60;;;5.50;99.90;;;;;;4992660;28;20436;-25
2020/12/28 04:11:38;;;;;;;4.73;3.77;;;5.50;99.90;;;;;;4933179;29;20949;-25
2020/12/28 04:14:22;;;;;;;4.50;3.63;;;5.30;99.90;;;;;;4972310;28;20448;-25
2020/12/28 04:16:50;;;;;;;3.60;3.40;;;5.00;99.90;;;;;;4992175;28;20456;-26
2020/12/28 04:19:16;;;;;;;3.60;3.40;;;4.90;99.90;;;;;;4990600;28;20460;-26
2020/12/28 04:21:43;;;;;;;3.90;3.70;;;4.90;99.90;;;;;;4991051;28;20455;-25
2020/12/28 04:24:15;;;;;;;3.23;3.03;;;5.00;99.90;;;;;;4991341;28;20906;-25
2020/12/28 04:26:43;;;;;;;4.60;3.40;;;5.20;99.90;;;;;;4991717;28;20757;-25
2020/12/28 04:29:10;;;;;;;4.53;4.20;;;5.30;99.90;;;;;;4992071;28;20443;-25
2020/12/28 04:31:37;;;;;;;3.73;3.53;;;5.40;99.90;;;;;;4991756;28;20448;-25
2020/12/28 04:34:05;;;;;;;6.63;3.70;;;5.50;99.90;;;;;;4992776;28;20448;-25
2020/12/28 04:36:32;;;;;;;4.23;3.87;;;5.40;99.90;;;;;;4992209;28;20444;-25
2020/12/28 04:38:59;;;;;;;4.00;3.70;;;5.40;99.90;;;;;;4991522;28;20834;-25
2020/12/28 04:41:28;;;;;;;4.50;4.20;;;5.40;99.90;;;;;;4990881;28;20440;-26
2020/12/28 04:43:55;;;;;;;4.10;3.80;;;5.40;99.90;;;;;;4991359;28;20531;-26
2020/12/28 04:46:22;;;;;;;5.37;4.40;;;5.40;99.90;;;;;;4990771;28;20487;-26
2020/12/28 04:48:48;;;;;;;4.70;4.13;;;5.30;99.90;;;;;;4993084;28;20460;-25
2020/12/28 04:51:17;;;;;;;3.90;3.60;;;5.30;99.90;;;;;;4996337;28;20516;-25
2020/12/28 04:53:45;;;;;;;4.33;4.07;;;5.30;99.90;;;;;;4995674;28;20949;-26
2020/12/28 04:56:12;;;;;;;4.10;3.80;;;5.40;99.90;;;;;;4996353;28;20528;-25
2020/12/28 04:58:38;;;;;;;5.13;4.67;;;5.40;99.90;;;;;;4994079;28;20874;-26
2020/12/28 05:01:05;;;;;;;4.30;3.90;;;5.10;99.90;;;;;;4991213;28;20463;-25
2020/12/28 05:03:31;;;;;;;5.33;4.93;;;5.10;99.90;;;;;;4991880;28;20694;-26
2020/12/28 05:05:59;;;;;;;5.83;5.30;;;5.20;99.90;;;;;;4991252;28;20441;-25
2020/12/28 05:08:27;;;;;;;5.20;4.80;;;5.20;99.90;;;;;;4990991;28;20436;-25
2020/12/28 05:10:53;;;;;;;5.57;5.00;;;5.20;99.90;;;;;;4991577;28;20602;-26
2020/12/28 05:13:20;;;;;;;6.10;4.43;;;5.20;99.90;;;;;;4991600;28;20455;-25
2020/12/28 05:15:48;;;;;;;5.63;5.13;;;5.20;99.90;;;;;;4991913;28;20491;-26
2020/12/28 05:18:16;;;;;;;5.20;4.80;;;5.20;99.90;;;;;;4990139;28;20448;-26
2020/12/28 05:20:44;;;;;;;4.60;4.20;;;5.10;99.90;;;;;;4989811;28;20444;-25
2020/12/28 05:23:12;;;;;;;5.47;5.07;;;5.10;99.90;;;;;;4989858;28;20578;-25
2020/12/28 05:25:41;;;;;;;5.00;4.60;;;5.10;99.90;;;;;;4990059;28;20491;-26
2020/12/28 05:28:10;;;;;;;5.13;4.80;;;5.00;99.90;;;;;;4991722;28;20799;-25
2020/12/28 05:30:36;;;;;;;4.93;4.57;;;5.00;99.90;;;;;;4991720;28;20472;-25
2020/12/28 05:33:04;;;;;;;4.83;4.53;;;4.90;99.90;;;;;;4990600;28;20455;-26
2020/12/28 05:35:32;;;;;;;5.27;4.80;;;4.90;99.90;;;;;;4990387;28;20476;-25
2020/12/28 05:38:01;;;;;;;5.93;5.33;;;4.80;99.90;;;;;;4990731;28;20465;-25
2020/12/28 05:40:28;;;;;;;6.60;5.40;;;4.80;99.90;;;;;;4989796;28;20502;-26
2020/12/28 05:42:56;;;;;;;6.53;5.17;;;4.80;99.90;;;;;;4990169;28;20452;-25
2020/12/28 05:45:23;;;;;;;6.73;6.10;;;4.80;99.90;;;;;;4988644;28;20456;-25
2020/12/28 05:47:52;;;;;;;6.60;6.10;;;4.90;99.90;;;;;;4988446;28;20550;-25
2020/12/28 05:50:21;;;;;;;8.60;5.77;;;4.90;99.90;;;;;;4987614;28;20665;-25
2020/12/28 05:52:53;;;;;;;6.13;5.43;;;5.00;99.90;;;;;;4988582;28;20543;-26
2020/12/28 05:55:22;;;;;;;6.10;5.60;;;5.00;99.90;;;;;;4986458;28;20519;-25
2020/12/28 05:57:49;;;;;;;6.30;5.53;;;5.00;99.90;;;;;;4986635;28;20855;-25
2020/12/28 06:00:18;;;;;;;6.80;6.10;;;5.10;99.90;;;;;;4987951;28;20475;-26
2020/12/28 06:02:45;;;;;;;8.10;7.30;;;5.10;99.90;;;;;;4986041;28;20678;-25
2020/12/28 06:05:14;;;;;;;9.00;8.10;;;5.10;99.90;;;;;;4986467;28;20560;-26
2020/12/28 06:07:41;;;;;;;7.73;7.03;;;5.10;99.90;;;;;;4986290;28;20461;-25
2020/12/28 06:10:10;;;;;;;7.70;7.00;;;5.10;99.90;;;;;;4988388;28;20729;-26
2020/12/28 06:12:37;;;;;;;7.10;5.90;;;5.20;99.90;;;;;;4987840;28;20527;-25
2020/12/28 06:15:03;;;;;;;8.67;6.30;;;5.20;99.90;;;;;;4988277;28;20515;-25
2020/12/28 06:17:35;;;;;;;7.33;6.73;;;5.20;99.90;;;;;;4988260;28;20964;-26
2020/12/28 06:20:04;;;;;;;8.73;7.60;;;5.20;99.90;;;;;;4987317;28;20874;-25
2020/12/28 06:22:32;;;;;;;17.83;15.63;;;5.20;99.90;;;;;;4987867;28;21077;-25
2020/12/28 06:25:00;;;;;;;12.07;9.53;;;5.20;99.90;;;;;;4986732;28;20755;-26
2020/12/28 06:27:32;;;;;;;11.97;9.20;;;5.20;99.90;;;;;;4986424;28;20468;-25
2020/12/28 06:30:10;;;;;;;9.50;7.23;;;5.20;99.90;;;;;;4987058;28;20787;-25
2020/12/28 06:32:38;;;;;;;11.43;8.37;;;5.20;99.90;;;;;;4986795;28;20839;-25
2020/12/28 06:35:07;;;;;;;9.40;6.87;;;5.20;99.90;;;;;;4984355;28;20510;-25
2020/12/28 06:37:41;;;;;;;8.47;6.23;;;5.20;99.90;;;;;;4986820;28;20684;-25
2020/12/28 06:40:09;;;;;;;22.93;15.27;;;5.20;99.90;;;;;;4986372;28;20439;-25
2020/12/28 06:42:35;;;;;;;20.13;11.43;;;5.20;99.90;;;;;;4984481;28;20444;-25
2020/12/28 06:45:15;;;;;;;16.00;11.13;;;5.20;99.90;;;;;;4985085;28;20851;-26
2020/12/28 06:47:43;;;;;;;16.00;12.17;;;5.30;99.90;;;;;;4983057;28;20473;-26
2020/12/28 06:50:11;;;;;;;16.13;10.30;;;5.30;99.90;;;;;;4981087;28;20529;-25
2020/12/28 06:52:37;;;;;;;9.37;6.50;;;5.30;99.90;;;;;;4980225;28;20540;-26
2020/12/28 06:55:08;;;;;;;6.53;5.10;;;5.30;99.90;;;;;;4982125;28;20445;-26
2020/12/28 06:57:34;;;;;;;5.77;5.17;;;5.40;99.90;;;;;;4980835;28;20721;-25
2020/12/28 07:00:02;;;;;;;4.80;4.40;;;5.30;99.90;;;;;;4980477;28;20816;-25
2020/12/28 07:02:28;;;;;;;6.40;5.80;;;5.40;99.90;;;;;;4977748;28;20452;-25
2020/12/28 07:05:00;;;;;;;6.30;5.70;;;5.30;99.90;;;;;;4974698;28;20646;-25
2020/12/28 07:07:27;;;;;;;7.07;6.30;;;5.30;99.90;;;;;;4975340;28;20495;-25
2020/12/28 07:09:54;;;;;;;8.83;6.80;;;5.30;99.90;;;;;;4957321;28;20812;-25
2020/12/28 07:12:21;;;;;;;9.90;6.27;;;5.30;99.90;;;;;;4977234;28;20451;-26
2020/12/28 07:14:47;;;;;;;7.97;7.17;;;5.30;99.90;;;;;;4976486;28;20463;-25
2020/12/28 07:17:14;;;;;;;8.30;6.27;;;5.30;99.90;;;;;;4977140;28;20452;-26
2020/12/28 07:19:41;;;;;;;8.27;7.47;;;5.40;99.90;;;;;;4977299;28;20441;-25
2020/12/28 07:22:08;;;;;;;9.47;7.40;;;5.40;99.90;;;;;;4977313;28;20872;-26
2020/12/28 07:24:35;;;;;;;6.67;6.07;;;5.40;99.90;;;;;;4972936;28;20587;-25
2020/12/28 07:27:02;;;;;;;7.00;5.93;;;5.30;99.90;;;;;;4973468;28;20633;-25
2020/12/28 07:29:29;;;;;;;6.47;5.97;;;5.30;99.90;;;;;;4977775;28;20788;-25
2020/12/28 07:32:04;;;;;;;10.50;8.00;;;5.30;99.90;;;;;;4975976;28;20750;-25
2020/12/28 07:34:31;;;;;;;6.90;6.27;;;5.40;99.90;;;;;;4957188;28;20840;-25
2020/12/28 07:36:58;;;;;;;8.27;7.47;;;5.40;99.90;;;;;;4974499;28;20839;-25
2020/12/28 07:39:26;;;;;;;14.70;12.30;;;5.40;99.90;;;;;;4976448;28;20732;-25
2020/12/28 07:41:52;;;;;;;9.13;8.17;;;5.50;99.90;;;;;;4976151;28;20456;-25
2020/12/28 07:44:19;;;;;;;9.00;7.97;;;5.50;99.90;;;;;;4973227;28;20851;-25
2020/12/28 07:46:55;;;;;;;8.13;7.33;;;5.40;99.90;;;;;;4974655;28;20491;-25
2020/12/28 07:49:25;;;;;;;7.10;5.57;;;5.30;99.90;;;;;;4975164;28;20590;-26
2020/12/28 07:52:01;;;;;;;6.13;5.47;;;5.30;99.90;;;;;;4975762;28;20522;-25
2020/12/28 07:54:38;;;;;;;7.07;5.20;;;5.00;99.90;;;;;;4973607;28;20440;-25
2020/12/28 07:57:07;;;;;;;6.80;5.30;;;4.70;99.90;;;;;;4975248;28;20490;-25
2020/12/28 07:59:45;;;;;;;5.17;4.70;;;4.60;99.90;;;;;;4973054;28;20877;-25
2020/12/28 08:02:44;;;;;;;6.67;5.73;;;4.70;99.90;;;;;;4974374;28;20691;-25
2020/12/28 08:05:12;;;;;;;6.63;6.03;;;4.90;99.90;;;;;;4950485;28;20464;-25
2020/12/28 08:07:39;;;;;;;7.23;5.50;;;5.00;99.90;;;;;;4973112;28;20464;-25
2020/12/28 08:10:10;;;;;;;6.47;5.87;;;5.20;99.90;;;;;;4975543;28;20976;-25
2020/12/28 08:12:40;;;;;;;6.93;5.70;;;5.20;99.90;;;;;;4973826;28;20483;-25
2020/12/28 08:15:07;;;;;;;7.47;6.63;;;5.20;99.90;;;;;;4973534;28;20463;-25
2020/12/28 08:17:34;;;;;;;7.87;6.47;;;5.20;99.90;;;;;;4974332;28;20919;-25
2020/12/28 08:20:11;;;;;;;8.30;7.23;;;5.30;99.90;;;;;;4974036;28;20450;-25
2020/12/28 08:22:38;;;;;;;9.37;8.37;;;5.40;99.90;;;;;;4970981;28;20444;-26
2020/12/28 08:25:06;;;;;;;7.90;6.90;;;5.40;99.90;;;;;;4969785;28;20499;-25
2020/12/28 08:27:34;;;;;;;10.70;8.17;;;5.50;99.90;;;;;;4972767;28;20801;-25
2020/12/28 08:30:05;;;;;;;7.80;7.10;;;5.50;99.90;;;;;;4973168;28;20732;-25
2020/12/28 08:32:33;;;;;;;7.90;7.30;;;5.30;99.90;;;;;;4972295;28;20740;-25
2020/12/28 08:35:01;;;;;;;8.40;7.60;;;5.10;99.90;;;;;;4973958;28;20652;-26
2020/12/28 08:37:28;;;;;;;10.17;9.10;;;5.10;99.90;;;;;;4979328;28;20432;-25
2020/12/28 08:39:54;;;;;;;8.70;7.80;;;5.10;99.90;;;;;;4977139;28;20760;-25
2020/12/28 08:42:29;;;;;;;8.77;8.00;;;4.90;99.90;;;;;;4976300;28;20546;-25
2020/12/28 08:44:57;;;;;;;9.57;8.63;;;4.80;99.90;;;;;;4976380;28;21218;-25
2020/12/28 08:47:25;;;;;;;8.37;7.60;;;4.90;99.90;;;;;;4977131;28;20869;-25
2020/12/28 08:49:52;;;;;;;9.47;8.13;;;4.90;99.90;;;;;;4977695;28;20723;-26
2020/12/28 08:52:20;;;;;;;10.20;9.20;;;5.10;99.90;;;;;;4974204;28;20524;-25
2020/12/28 08:54:53;;;;;;;10.07;9.07;;;5.10;99.90;;;;;;4977172;28;20448;-26
2020/12/28 08:57:20;;;;;;;12.43;10.90;;;5.20;99.90;;;;;;4977412;28;20452;-25
2020/12/28 08:59:47;;;;;;;14.70;10.30;;;5.30;99.90;;;;;;4977145;28;20912;-25
2020/12/28 09:02:19;;;;;;;16.70;14.90;;;5.20;99.90;;;;;;4977761;28;20444;-25
2020/12/28 09:04:45;;;;;;;13.63;11.53;;;5.10;99.90;;;;;;4975888;28;20556;-26
2020/12/28 09:07:12;;;;;;;14.30;12.80;;;5.10;99.90;;;;;;4975773;28;20465;-26
2020/12/28 09:09:40;;;;;;;14.03;11.00;;;5.20;99.90;;;;;;4973566;28;20857;-25
2020/12/28 09:12:07;;;;;;;14.63;12.10;;;5.40;99.90;;;;;;4973832;28;20725;-25
2020/12/28 09:14:34;;;;;;;14.23;12.67;;;5.50;99.90;;;;;;4977194;28;20844;-25
2020/12/28 09:17:01;;;;;;;19.60;15.40;;;5.60;99.90;;;;;;4974561;28;21137;-26
2020/12/28 09:19:30;;;;;;;18.20;14.97;;;5.70;99.90;;;;;;4973339;28;20667;-25
2020/12/28 09:21:57;;;;;;;19.57;14.43;;;5.60;99.90;;;;;;4976403;28;20471;-25
2020/12/28 09:24:24;;;;;;;15.57;14.07;;;5.50;99.90;;;;;;4978268;28;20601;-25
2020/12/28 09:26:51;;;;;;;14.97;13.40;;;5.60;99.90;;;;;;4977921;28;20469;-25
2020/12/28 09:29:17;;;;;;;12.73;11.57;;;5.80;99.90;;;;;;4962602;28;20444;-25
2020/12/28 09:31:44;;;;;;;16.47;10.50;;;5.90;99.90;;;;;;4977212;28;20460;-25
2020/12/28 09:34:11;;;;;;;11.97;10.03;;;5.90;99.90;;;;;;4977864;28;20502;-25
2020/12/28 09:36:38;;;;;;;11.20;10.20;;;5.70;99.90;;;;;;4960951;28;20445;-25
2020/12/28 09:39:05;;;;;;;11.23;10.23;;;5.50;99.90;;;;;;4979752;28;20456;-25
2020/12/28 09:41:32;;;;;;;10.70;9.70;;;5.40;99.90;;;;;;4979903;28;20510;-25
2020/12/28 09:43:59;;;;;;;16.93;10.90;;;5.60;99.90;;;;;;4979126;28;20479;-25
2020/12/28 09:46:37;;;;;;;11.43;10.27;;;5.70;99.90;;;;;;4980045;28;20546;-25
2020/12/28 09:49:04;;;;;;;13.03;11.53;;;5.90;99.90;;;;;;4961682;28;20442;-25
2020/12/28 09:51:30;;;;;;;12.63;11.30;;;6.00;99.90;;;;;;4960755;28;20508;-25
2020/12/28 09:53:58;;;;;;;15.43;13.83;;;6.10;99.90;;;;;;4961293;28;20930;-25
2020/12/28 09:56:25;;;;;;;14.87;12.03;;;6.10;99.90;;;;;;4961108;28;20446;-25
2020/12/28 09:58:51;;;;;;;14.10;11.27;;;6.00;99.90;;;;;;4962637;28;20438;-25
2020/12/28 10:01:18;;;;;;;15.60;11.67;;;6.00;99.90;;;;;;4960809;28;20759;-25
2020/12/28 10:03:45;;;;;;;13.60;11.33;;;5.90;99.90;;;;;;4959843;28;21275;-25
2020/12/28 10:06:31;;;;;;;13.23;11.93;;;5.90;99.90;;;;;;4961102;28;20449;-26
2020/12/28 10:08:59;;;;;;;14.17;12.27;;;6.00;99.90;;;;;;4960899;28;20560;-25
2020/12/28 10:11:26;;;;;;;13.43;11.53;;;6.10;99.90;;;;;;4960393;28;20449;-26
2020/12/28 10:13:53;;;;;;;12.03;10.83;;;6.00;99.90;;;;;;4963017;28;20437;-25
2020/12/28 10:16:23;;;;;;;12.60;8.57;;;5.70;99.90;;;;;;4964513;28;20461;-25
2020/12/28 10:18:50;;;;;;;14.27;11.43;;;5.60;99.90;;;;;;4963547;28;20956;-25
2020/12/28 10:21:17;;;;;;;14.17;12.30;;;5.50;99.90;;;;;;4963303;28;20730;-25
2020/12/28 10:23:44;;;;;;;14.83;12.97;;;5.50;99.90;;;;;;4961878;28;20440;-25
2020/12/28 10:26:17;;;;;;;13.53;11.90;;;5.60;99.90;;;;;;4960836;28;20449;-25
2020/12/28 10:28:44;;;;;;;12.77;11.50;;;5.70;99.90;;;;;;4957553;28;20707;-26
2020/12/28 10:31:12;;;;;;;17.03;12.77;;;5.80;99.90;;;;;;4937476;28;20697;-25
2020/12/28 10:33:39;;;;;;;14.70;11.77;;;6.00;99.90;;;;;;4952439;28;20488;-26
2020/12/28 10:36:06;;;;;;;17.27;13.17;;;6.10;99.90;;;;;;4952201;28;20618;-25
2020/12/28 10:38:33;;;;;;;14.40;12.90;;;6.20;99.90;;;;;;4952215;28;20704;-25
2020/12/28 10:40:59;;;;;;;13.10;11.73;;;6.40;99.90;;;;;;4954966;28;20449;-26
2020/12/28 10:43:27;;;;;;;12.27;11.07;;;6.50;99.90;;;;;;4950689;28;20858;-26
2020/12/28 10:45:54;;;;;;;13.30;11.90;;;6.60;99.90;;;;;;4950779;28;21096;-25
2020/12/28 10:48:20;;;;;;;16.30;11.80;;;6.70;99.90;;;;;;4949447;28;20631;-25
2020/12/28 10:50:47;;;;;;;15.30;13.70;;;6.70;99.90;;;;;;4951782;28;20460;-25
2020/12/28 10:53:13;;;;;;;14.70;12.93;;;6.70;99.90;;;;;;4950537;28;20449;-25
2020/12/28 10:55:40;;;;;;;14.60;12.80;;;6.80;99.90;;;;;;4953253;28;20870;-25
2020/12/28 10:58:07;;;;;;;15.40;13.63;;;6.80;99.90;;;;;;4954500;28;20445;-26
2020/12/28 11:00:34;;;;;;;12.00;10.80;;;6.80;99.90;;;;;;4953931;28;20461;-25
2020/12/28 11:03:01;;;;;;;16.37;12.23;;;6.80;99.90;;;;;;4950229;28;20666;-26
2020/12/28 11:05:27;;;;;;;13.50;12.07;;;6.80;99.90;;;;;;4952831;28;20936;-25
2020/12/28 11:07:54;;;;;;;15.47;12.80;;;6.80;99.90;;;;;;4956746;28;20512;-25
2020/12/28 11:10:20;;;;;;;14.50;13.10;;;6.90;99.90;;;;;;4958711;28;20441;-26
2020/12/28 11:12:47;;;;;;;13.70;12.30;;;6.90;99.90;;;;;;4957237;28;20524;-26
2020/12/28 11:15:13;;;;;;;11.83;10.70;;;6.90;99.90;;;;;;4951104;28;20460;-26
2020/12/28 11:17:41;;;;;;;12.07;10.93;;;6.90;99.90;;;;;;4951701;28;20449;-25
2020/12/28 11:20:07;;;;;;;13.37;11.83;;;6.90;99.90;;;;;;4952439;28;20823;-26
2020/12/28 11:22:34;;;;;;;17.83;12.30;;;6.90;99.90;;;;;;4952906;28;20465;-26
2020/12/28 11:25:01;;;;;;;11.67;10.50;;;6.90;99.90;;;;;;4951995;28;20910;-26
2020/12/28 11:27:30;;;;;;;11.33;10.13;;;6.90;99.90;;;;;;4953880;28;20883;-25
2020/12/28 11:29:57;;;;;;;12.40;9.30;;;6.90;99.90;;;;;;4951660;28;20445;-26
2020/12/28 11:32:24;;;;;;;10.20;9.30;;;6.70;99.90;;;;;;4952340;28;20445;-26
2020/12/28 11:34:51;;;;;;;11.53;10.43;;;6.70;99.90;;;;;;4957779;28;20437;-26
2020/12/28 11:37:18;;;;;;;10.77;9.87;;;6.60;99.90;;;;;;4954648;28;20637;-26
2020/12/28 11:39:44;;;;;;;11.27;10.27;;;6.40;99.90;;;;;;4953853;28;20697;-25
2020/12/28 11:42:15;;;;;;;10.87;9.80;;;6.40;99.90;;;;;;4953357;28;20660;-26
2020/12/28 11:44:42;;;;;;;13.43;10.07;;;6.40;99.90;;;;;;4952220;28;20847;-25
2020/12/28 11:47:09;;;;;;;14.87;12.60;;;6.50;99.90;;;;;;4955075;28;20870;-25
2020/12/28 11:49:35;;;;;;;11.90;10.80;;;6.70;99.90;;;;;;4953963;28;20496;-26
2020/12/28 11:52:04;;;;;;;14.47;11.73;;;6.80;99.90;;;;;;4953413;28;20721;-25
2020/12/28 11:54:30;;;;;;;15.93;12.10;;;6.90;99.90;;;;;;4953854;28;20702;-26
2020/12/28 11:56:57;;;;;;;18.30;12.60;;;6.70;99.90;;;;;;4953986;28;20757;-26
2020/12/28 11:59:24;;;;;;;13.30;11.90;;;6.80;99.90;;;;;;4987930;28;20443;-26
2020/12/28 12:01:50;;;;;;;11.80;10.67;;;6.70;99.90;;;;;;4997081;28;20462;-25
2020/12/28 12:04:17;;;;;;;23.70;13.37;;;6.70;99.90;;;;;;4999318;28;20442;-26
2020/12/28 12:06:43;;;;;;;17.07;12.03;;;6.40;99.90;;;;;;4997670;28;20494;-25
2020/12/28 12:09:14;;;;;;;14.87;11.43;;;6.30;99.90;;;;;;4998524;28;20455;-25
2020/12/28 12:11:43;;;;;;;15.20;13.60;;;6.60;99.90;;;;;;5001833;28;20504;-25
2020/12/28 12:14:10;;;;;;;12.33;11.13;;;6.70;99.90;;;;;;5002464;28;20440;-25
2020/12/28 12:16:39;;;;;;;12.43;10.63;;;6.80;99.90;;;;;;5005215;28;20467;-25
2020/12/28 12:19:05;;;;;;;12.83;11.47;;;7.00;99.90;;;;;;5004938;28;20445;-25
2020/12/28 12:21:32;;;;;;;14.40;10.80;;;7.10;99.90;;;;;;5005213;28;20492;-25
2020/12/28 12:24:00;;;;;;;28.30;24.60;;;7.10;99.90;;;;;;5002328;28;20486;-25
2020/12/28 12:26:28;;;;;;;14.00;12.70;;;7.30;99.90;;;;;;5003907;28;20439;-26
2020/12/28 12:28:55;;;;;;;15.60;12.17;;;7.20;99.90;;;;;;4991930;28;20539;-25
2020/12/28 12:31:22;;;;;;;11.13;10.03;;;7.10;99.90;;;;;;4981618;28;20490;-25
2020/12/28 12:33:49;;;;;;;14.73;12.37;;;7.10;99.90;;;;;;4989314;28;20443;-26
2020/12/28 12:36:16;;;;;;;12.47;11.23;;;7.00;99.90;;;;;;5001473;28;20461;-26
2020/12/28 12:38:44;;;;;;;12.40;11.20;;;6.80;99.90;;;;;;4985715;28;21064;-26
2020/12/28 12:41:14;;;;;;;14.03;11.50;;;6.80;99.90;;;;;;4977214;28;21048;-24
2020/12/28 12:43:42;;;;;;;10.93;9.70;;;7.00;99.90;;;;;;4975786;28;20869;-25
2020/12/28 12:46:09;;;;;;;11.30;10.20;;;7.10;99.90;;;;;;4977269;28;20637;-25
2020/12/28 12:48:39;;;;;;;11.23;10.17;;;7.10;99.90;;;;;;4976473;28;20786;-25
2020/12/28 12:51:05;;;;;;;11.67;10.60;;;6.90;99.90;;;;;;4975267;28;21170;-25
2020/12/28 12:53:32;;;;;;;14.73;13.43;;;7.00;99.90;;;;;;4976326;28;20870;-25
2020/12/28 12:55:58;;;;;;;12.17;10.13;;;7.00;99.90;;;;;;4975170;28;20593;-25
2020/12/28 12:58:25;;;;;;;9.33;8.53;;;7.10;99.90;;;;;;4971340;28;20440;-25
2020/12/28 13:00:52;;;;;;;13.70;8.57;;;7.20;99.90;;;;;;4972854;28;20492;-25
2020/12/28 13:03:19;;;;;;;6.83;6.13;;;7.20;99.90;;;;;;4972413;28;21026;-25
2020/12/28 13:05:45;;;;;;;7.27;6.57;;;7.20;99.90;;;;;;4971829;28;20472;-25